createdAt,value
2018-07-23T00:00:16.298Z,0.00
2018-07-23T00:01:16.276Z,0.00
2018-07-23T00:02:16.268Z,0.00
2018-07-23T00:03:16.253Z,0.00
2018-07-23T00:04:16.326Z,0.00
2018-07-23T00:05:16.248Z,0.00
2018-07-23T00:06:16.243Z,0.00
2018-07-23T00:07:16.224Z,0.00
2018-07-23T00:08:16.231Z,0.00
2018-07-23T00:09:16.214Z,0.00
2018-07-23T00:10:16.217Z,0.00
2018-07-23T00:11:16.208Z,0.00
2018-07-23T00:12:16.209Z,0.00
2018-07-23T00:13:16.219Z,0.00
2018-07-23T00:14:16.223Z,0.00
2018-07-23T00:15:16.184Z,0.00
2018-07-23T00:16:16.168Z,0.00
2018-07-23T00:17:16.165Z,0.00
2018-07-23T00:18:16.191Z,0.00
2018-07-23T00:19:16.171Z,0.00
2018-07-23T00:20:16.152Z,0.00
2018-07-23T00:21:16.140Z,0.00
2018-07-23T00:22:16.133Z,0.00
2018-07-23T00:23:16.157Z,0.00
2018-07-23T00:24:16.176Z,0.00
2018-07-23T00:25:16.110Z,0.00
2018-07-23T00:26:16.100Z,0.00
2018-07-23T00:27:16.105Z,0.00
2018-07-23T00:28:16.097Z,0.00
2018-07-23T00:29:16.083Z,0.00
2018-07-23T00:30:16.082Z,0.00
2018-07-23T00:31:16.080Z,0.00
2018-07-23T00:32:16.066Z,0.00
2018-07-23T00:33:16.057Z,0.00
2018-07-23T00:34:16.083Z,0.00
2018-07-23T00:35:16.078Z,0.00
2018-07-23T00:36:16.028Z,0.00
2018-07-23T00:37:16.028Z,0.00
2018-07-23T00:38:16.026Z,0.00
2018-07-23T00:39:16.018Z,0.00
2018-07-23T00:40:16.035Z,0.00
2018-07-23T00:41:16.006Z,0.00
2018-07-23T00:42:15.998Z,0.00
2018-07-23T00:43:15.986Z,0.00
2018-07-23T00:44:16.005Z,0.00
2018-07-23T00:45:15.980Z,0.00
2018-07-23T00:46:15.957Z,0.00
2018-07-23T00:47:15.998Z,0.00
2018-07-23T00:48:15.951Z,0.00
2018-07-23T00:49:15.954Z,0.00
2018-07-23T00:50:15.984Z,0.00
2018-07-23T00:51:15.943Z,0.00
2018-07-23T00:52:15.930Z,0.00
2018-07-23T00:53:15.916Z,0.00
2018-07-23T00:54:15.951Z,0.00
2018-07-23T00:55:15.910Z,0.00
2018-07-23T00:56:15.891Z,0.00
2018-07-23T00:57:15.899Z,0.00
2018-07-23T00:58:15.883Z,0.00
2018-07-23T00:59:15.913Z,0.00
2018-07-23T01:00:15.899Z,0.00
2018-07-23T01:01:15.866Z,0.00
2018-07-23T01:02:15.872Z,0.00
2018-07-23T01:03:15.851Z,0.00
2018-07-23T01:04:15.841Z,0.00
2018-07-23T01:05:15.842Z,0.00
2018-07-23T01:06:15.869Z,0.00
2018-07-23T01:07:15.821Z,0.00
2018-07-23T01:08:15.815Z,0.00
2018-07-23T01:09:15.805Z,0.00
2018-07-23T01:10:15.796Z,0.00
2018-07-23T01:11:15.867Z,0.00
2018-07-23T01:12:15.781Z,0.00
2018-07-23T01:13:15.787Z,0.00
2018-07-23T01:14:15.774Z,0.00
2018-07-23T01:15:15.762Z,0.00
2018-07-23T01:16:15.749Z,0.00
2018-07-23T01:17:15.752Z,0.00
2018-07-23T01:18:15.739Z,0.00
2018-07-23T01:19:15.740Z,0.00
2018-07-23T01:20:15.720Z,0.00
2018-07-23T01:21:15.711Z,0.00
2018-07-23T01:22:15.763Z,0.00
2018-07-23T01:23:15.706Z,0.00
2018-07-23T01:24:15.701Z,0.00
2018-07-23T01:25:15.691Z,0.00
2018-07-23T01:26:15.673Z,0.00
2018-07-23T01:27:15.679Z,0.00
2018-07-23T01:28:15.879Z,0.00
2018-07-23T01:29:15.658Z,0.00
2018-07-23T01:30:15.663Z,0.00
2018-07-23T01:31:15.650Z,0.00
2018-07-23T01:32:15.639Z,0.00
2018-07-23T01:33:15.703Z,0.00
2018-07-23T01:34:15.625Z,0.00
2018-07-23T01:35:15.617Z,0.00
2018-07-23T01:36:15.614Z,0.00
2018-07-23T01:37:15.612Z,0.00
2018-07-23T01:38:15.599Z,0.00
2018-07-23T01:39:15.599Z,0.00
2018-07-23T01:40:15.581Z,0.00
2018-07-23T01:41:15.567Z,0.00
2018-07-23T01:42:15.575Z,0.00
2018-07-23T01:43:15.565Z,0.00
2018-07-23T01:44:15.580Z,0.00
2018-07-23T01:45:15.549Z,0.00
2018-07-23T01:46:15.537Z,0.00
2018-07-23T01:47:15.522Z,0.00
2018-07-23T01:48:15.531Z,0.00
2018-07-23T01:49:15.526Z,0.00
2018-07-23T01:50:15.517Z,0.00
2018-07-23T01:51:15.509Z,0.00
2018-07-23T01:52:15.501Z,0.00
2018-07-23T01:53:15.489Z,0.00
2018-07-23T01:54:15.497Z,0.00
2018-07-23T01:55:15.498Z,0.00
2018-07-23T01:56:15.525Z,0.00
2018-07-23T01:57:15.459Z,0.00
2018-07-23T01:58:15.459Z,0.00
2018-07-23T01:59:15.441Z,0.00
2018-07-23T02:00:15.441Z,0.00
2018-07-23T02:01:15.431Z,0.00
2018-07-23T02:02:15.434Z,0.00
2018-07-23T02:03:15.415Z,0.00
2018-07-23T02:04:15.416Z,0.00
2018-07-23T02:05:15.402Z,0.00
2018-07-23T02:06:15.392Z,0.00
2018-07-23T02:07:15.455Z,0.00
2018-07-23T02:08:15.377Z,0.00
2018-07-23T02:09:15.378Z,0.00
2018-07-23T02:10:15.357Z,0.00
2018-07-23T02:11:15.363Z,0.00
2018-07-23T02:12:15.356Z,0.00
2018-07-23T02:13:15.374Z,0.00
2018-07-23T02:14:15.338Z,0.00
2018-07-23T02:15:15.326Z,0.00
2018-07-23T02:16:15.322Z,0.00
2018-07-23T02:17:15.305Z,0.00
2018-07-23T02:18:15.310Z,0.00
2018-07-23T02:19:15.302Z,0.00
2018-07-23T02:20:15.284Z,0.00
2018-07-23T02:21:15.287Z,0.00
2018-07-23T02:22:15.275Z,0.00
2018-07-23T02:23:15.272Z,0.00
2018-07-23T02:24:15.292Z,0.00
2018-07-23T02:25:15.239Z,0.00
2018-07-23T02:26:15.296Z,0.00
2018-07-23T02:27:15.234Z,0.00
2018-07-23T02:28:15.221Z,0.00
2018-07-23T02:29:15.213Z,0.00
2018-07-23T02:30:15.214Z,0.00
2018-07-23T02:31:15.206Z,0.00
2018-07-23T02:32:15.233Z,0.00
2018-07-23T02:33:15.176Z,0.00
2018-07-23T02:34:15.196Z,0.00
2018-07-23T02:35:15.192Z,0.00
2018-07-23T02:36:15.170Z,0.00
2018-07-23T02:37:15.150Z,0.00
2018-07-23T02:38:15.171Z,0.00
2018-07-23T02:39:15.172Z,0.00
2018-07-23T02:40:15.136Z,0.00
2018-07-23T02:41:15.126Z,0.00
2018-07-23T02:42:15.124Z,0.00
2018-07-23T02:43:15.113Z,0.00
2018-07-23T02:44:15.172Z,0.00
2018-07-23T02:45:15.085Z,0.00
2018-07-23T02:46:15.086Z,0.00
2018-07-23T02:47:15.077Z,0.00
2018-07-23T02:48:15.076Z,0.00
2018-07-23T02:49:15.064Z,0.00
2018-07-23T02:50:15.109Z,0.00
2018-07-23T02:51:15.046Z,0.00
2018-07-23T02:52:15.051Z,0.00
2018-07-23T02:53:15.033Z,0.00
2018-07-23T02:54:15.020Z,0.00
2018-07-23T02:55:15.012Z,0.00
2018-07-23T02:56:15.011Z,0.00
2018-07-23T02:57:14.997Z,0.00
2018-07-23T02:58:14.988Z,0.00
2018-07-23T02:59:14.990Z,0.00
2018-07-23T03:00:15.015Z,0.00
2018-07-23T03:01:14.963Z,0.00
2018-07-23T03:02:14.967Z,0.00
2018-07-23T03:03:14.958Z,0.00
2018-07-23T03:04:14.936Z,0.00
2018-07-23T03:05:14.968Z,0.00
2018-07-23T03:06:14.920Z,0.00
2018-07-23T03:07:14.919Z,0.00
2018-07-23T03:08:14.925Z,0.00
2018-07-23T03:09:14.905Z,0.00
2018-07-23T03:10:14.927Z,0.00
2018-07-23T03:11:14.887Z,0.00
2018-07-23T03:12:14.931Z,0.00
2018-07-23T03:13:14.901Z,0.00
2018-07-23T03:14:14.862Z,0.00
2018-07-23T03:15:14.910Z,0.00
2018-07-23T03:16:14.860Z,0.00
2018-07-23T03:17:14.839Z,0.00
2018-07-23T03:18:14.843Z,0.00
2018-07-23T03:19:14.836Z,0.00
2018-07-23T03:20:14.831Z,0.00
2018-07-23T03:21:14.841Z,0.00
2018-07-23T03:22:14.848Z,0.00
2018-07-23T03:23:14.802Z,0.00
2018-07-23T03:24:14.807Z,0.00
2018-07-23T03:25:14.787Z,0.00
2018-07-23T03:26:14.785Z,0.00
2018-07-23T03:27:14.828Z,0.00
2018-07-23T03:28:14.761Z,0.00
2018-07-23T03:29:14.749Z,0.00
2018-07-23T03:30:14.757Z,0.00
2018-07-23T03:31:14.735Z,0.00
2018-07-23T03:32:14.734Z,0.00
2018-07-23T03:33:14.741Z,0.00
2018-07-23T03:34:14.705Z,0.00
2018-07-23T03:35:14.703Z,0.00
2018-07-23T03:36:14.697Z,0.00
2018-07-23T03:37:14.683Z,0.00
2018-07-23T03:38:14.703Z,0.00
2018-07-23T03:39:14.680Z,0.00
2018-07-23T03:40:14.652Z,0.00
2018-07-23T03:41:14.662Z,0.00
2018-07-23T03:42:14.653Z,0.00
2018-07-23T03:43:14.666Z,0.00
2018-07-23T03:44:14.639Z,0.00
2018-07-23T03:45:14.626Z,0.00
2018-07-23T03:46:14.615Z,0.00
2018-07-23T03:47:14.612Z,0.00
2018-07-23T03:48:14.594Z,0.00
2018-07-23T03:49:14.601Z,0.00
2018-07-23T03:50:14.587Z,0.00
2018-07-23T03:51:14.574Z,0.00
2018-07-23T03:52:14.560Z,0.00
2018-07-23T03:53:14.587Z,0.00
2018-07-23T03:54:14.545Z,0.00
2018-07-23T03:55:14.545Z,0.00
2018-07-23T03:56:14.542Z,5.63
2018-07-23T03:57:14.528Z,5.63
2018-07-23T03:58:14.595Z,5.63
2018-07-23T03:59:14.508Z,5.63
2018-07-23T04:00:14.501Z,5.63
2018-07-23T04:01:14.492Z,5.63
2018-07-23T04:02:14.501Z,5.63
2018-07-23T04:03:14.470Z,5.63
2018-07-23T04:04:14.500Z,5.63
2018-07-23T04:05:14.453Z,5.63
2018-07-23T04:06:14.455Z,5.63
2018-07-23T04:07:14.441Z,5.63
2018-07-23T04:08:14.442Z,5.63
2018-07-23T04:09:14.454Z,5.63
2018-07-23T04:10:14.438Z,5.63
2018-07-23T04:11:14.412Z,5.63
2018-07-23T04:12:14.402Z,5.63
2018-07-23T04:13:14.382Z,5.63
2018-07-23T04:14:14.390Z,5.63
2018-07-23T04:15:14.408Z,5.63
2018-07-23T04:16:14.361Z,5.63
2018-07-23T04:17:14.374Z,5.63
2018-07-23T04:18:14.351Z,11.25
2018-07-23T04:19:14.340Z,11.25
2018-07-23T04:20:14.355Z,11.25
2018-07-23T04:21:14.347Z,11.25
2018-07-23T04:22:14.316Z,11.25
2018-07-23T04:23:14.300Z,11.25
2018-07-23T04:24:14.310Z,11.25
2018-07-23T04:25:14.297Z,11.25
2018-07-23T04:26:14.310Z,11.25
2018-07-23T04:27:14.282Z,16.88
2018-07-23T04:28:14.269Z,16.88
2018-07-23T04:29:14.253Z,16.88
2018-07-23T04:30:14.257Z,16.88
2018-07-23T04:31:14.274Z,16.88
2018-07-23T04:32:14.257Z,16.88
2018-07-23T04:33:14.222Z,16.88
2018-07-23T04:34:14.207Z,16.88
2018-07-23T04:35:14.205Z,16.88
2018-07-23T04:36:14.203Z,16.88
2018-07-23T04:37:14.224Z,16.88
2018-07-23T04:38:14.184Z,22.50
2018-07-23T04:39:14.176Z,22.50
2018-07-23T04:40:14.162Z,16.88
2018-07-23T04:41:14.158Z,22.50
2018-07-23T04:42:14.197Z,22.50
2018-07-23T04:43:14.144Z,22.50
2018-07-23T04:44:14.135Z,22.50
2018-07-23T04:45:14.153Z,22.50
2018-07-23T04:46:14.118Z,22.50
2018-07-23T04:47:14.149Z,22.50
2018-07-23T04:48:14.089Z,22.50
2018-07-23T04:49:14.102Z,22.50
2018-07-23T04:50:14.082Z,22.50
2018-07-23T04:51:14.083Z,22.50
2018-07-23T04:52:14.134Z,22.50
2018-07-23T04:53:14.054Z,22.50
2018-07-23T04:54:14.048Z,22.50
2018-07-23T04:55:14.040Z,22.50
2018-07-23T04:56:14.038Z,28.13
2018-07-23T04:57:14.022Z,28.13
2018-07-23T04:58:14.034Z,28.13
2018-07-23T04:59:14.021Z,28.13
2018-07-23T05:00:14.003Z,28.13
2018-07-23T05:01:13.994Z,28.13
2018-07-23T05:02:13.983Z,28.13
2018-07-23T05:03:14.000Z,28.13
2018-07-23T05:04:13.972Z,28.13
2018-07-23T05:05:14.011Z,28.13
2018-07-23T05:06:13.953Z,28.13
2018-07-23T05:07:13.944Z,33.75
2018-07-23T05:08:13.936Z,33.75
2018-07-23T05:09:13.928Z,33.75
2018-07-23T05:10:13.919Z,33.75
2018-07-23T05:11:13.949Z,33.75
2018-07-23T05:12:13.910Z,33.75
2018-07-23T05:13:13.909Z,33.75
2018-07-23T05:14:13.884Z,33.75
2018-07-23T05:15:13.887Z,33.75
2018-07-23T05:16:13.901Z,33.75
2018-07-23T05:17:13.867Z,33.75
2018-07-23T05:18:13.851Z,33.75
2018-07-23T05:19:13.845Z,33.75
2018-07-23T05:20:13.847Z,33.75
2018-07-23T05:21:13.877Z,33.75
2018-07-23T05:22:13.823Z,33.75
2018-07-23T05:23:13.818Z,33.75
2018-07-23T05:24:13.794Z,33.75
2018-07-23T05:25:13.786Z,33.75
2018-07-23T05:26:13.844Z,33.75
2018-07-23T05:27:13.799Z,33.75
2018-07-23T05:28:13.775Z,33.75
2018-07-23T05:29:13.772Z,33.75
2018-07-23T05:30:13.756Z,33.75
2018-07-23T05:31:13.747Z,33.75
2018-07-23T05:32:14.020Z,33.75
2018-07-23T05:33:13.728Z,33.75
2018-07-23T05:34:13.729Z,33.75
2018-07-23T05:35:13.725Z,33.75
2018-07-23T05:36:13.721Z,33.75
2018-07-23T05:37:13.707Z,33.75
2018-07-23T05:38:13.736Z,33.75
2018-07-23T05:39:13.692Z,33.75
2018-07-23T05:40:13.681Z,33.75
2018-07-23T05:41:13.681Z,33.75
2018-07-23T05:42:13.662Z,33.75
2018-07-23T05:43:13.683Z,39.38
2018-07-23T05:44:13.672Z,39.38
2018-07-23T05:45:13.641Z,33.75
2018-07-23T05:46:13.631Z,33.75
2018-07-23T05:47:13.621Z,33.75
2018-07-23T05:48:13.608Z,39.38
2018-07-23T05:49:13.948Z,33.75
2018-07-23T05:50:13.588Z,39.38
2018-07-23T05:51:13.604Z,39.38
2018-07-23T05:52:13.589Z,39.38
2018-07-23T05:53:13.574Z,39.38
2018-07-23T05:54:13.559Z,39.38
2018-07-23T05:55:13.576Z,39.38
2018-07-23T05:56:13.543Z,39.38
2018-07-23T05:57:13.544Z,39.38
2018-07-23T05:58:13.541Z,39.38
2018-07-23T05:59:13.528Z,39.38
2018-07-23T06:00:13.560Z,45.00
2018-07-23T06:01:13.522Z,45.00
2018-07-23T06:02:13.517Z,45.00
2018-07-23T06:03:13.508Z,45.00
2018-07-23T06:04:13.501Z,45.00
2018-07-23T06:05:13.484Z,45.00
2018-07-23T06:06:13.490Z,45.00
2018-07-23T06:07:13.469Z,45.00
2018-07-23T06:08:13.461Z,45.00
2018-07-23T06:09:13.512Z,50.63
2018-07-23T06:10:13.446Z,50.63
2018-07-23T06:11:13.436Z,50.63
2018-07-23T06:12:13.432Z,56.25
2018-07-23T06:13:13.450Z,56.25
2018-07-23T06:14:13.422Z,56.25
2018-07-23T06:15:13.490Z,56.25
2018-07-23T06:16:13.404Z,56.25
2018-07-23T06:17:13.403Z,50.63
2018-07-23T06:18:13.388Z,50.63
2018-07-23T06:19:13.378Z,50.63
2018-07-23T06:20:13.375Z,50.63
2018-07-23T06:21:13.433Z,56.25
2018-07-23T06:22:13.358Z,56.25
2018-07-23T06:23:13.350Z,56.25
2018-07-23T06:24:13.343Z,56.25
2018-07-23T06:25:13.341Z,56.25
2018-07-23T06:26:13.318Z,56.25
2018-07-23T06:27:13.328Z,56.25
2018-07-23T06:28:13.314Z,56.25
2018-07-23T06:29:13.399Z,45.00
2018-07-23T06:30:13.311Z,50.63
2018-07-23T06:31:13.321Z,50.63
2018-07-23T06:32:13.293Z,56.25
2018-07-23T06:33:13.534Z,56.25
2018-07-23T06:34:13.270Z,56.25
2018-07-23T06:35:13.266Z,56.25
2018-07-23T06:36:13.256Z,56.25
2018-07-23T06:37:13.258Z,56.25
2018-07-23T06:38:13.244Z,56.25
2018-07-23T06:39:13.248Z,56.25
2018-07-23T06:40:13.233Z,56.25
2018-07-23T06:41:13.231Z,56.25
2018-07-23T06:42:13.214Z,56.25
2018-07-23T06:43:13.230Z,56.25
2018-07-23T06:44:13.224Z,56.25
2018-07-23T06:45:13.197Z,56.25
2018-07-23T06:46:13.185Z,56.25
2018-07-23T06:47:13.185Z,61.88
2018-07-23T06:48:13.178Z,61.88
2018-07-23T06:49:13.197Z,61.88
2018-07-23T06:50:13.158Z,61.88
2018-07-23T06:51:13.182Z,61.88
2018-07-23T06:52:13.145Z,61.88
2018-07-23T06:53:13.145Z,61.88
2018-07-23T06:54:13.137Z,61.88
2018-07-23T06:55:13.166Z,61.88
2018-07-23T06:56:13.156Z,61.88
2018-07-23T06:57:13.124Z,67.50
2018-07-23T06:58:13.112Z,61.88
2018-07-23T06:59:13.091Z,61.88
2018-07-23T07:00:13.110Z,61.88
2018-07-23T07:01:13.094Z,61.88
2018-07-23T07:02:13.075Z,61.88
2018-07-23T07:03:13.078Z,67.50
2018-07-23T07:04:13.067Z,67.50
2018-07-23T07:05:13.059Z,67.50
2018-07-23T07:06:13.448Z,67.50
2018-07-23T07:07:13.043Z,67.50
2018-07-23T07:08:13.047Z,73.13
2018-07-23T07:09:13.034Z,73.13
2018-07-23T07:10:13.031Z,73.13
2018-07-23T07:11:13.012Z,73.13
2018-07-23T07:12:13.077Z,73.13
2018-07-23T07:13:13.010Z,73.13
2018-07-23T07:14:13.005Z,73.13
2018-07-23T07:15:12.990Z,73.13
2018-07-23T07:16:12.993Z,73.13
2018-07-23T07:17:12.988Z,73.13
2018-07-23T07:18:13.011Z,73.13
2018-07-23T07:19:12.973Z,73.13
2018-07-23T07:20:12.988Z,73.13
2018-07-23T07:21:12.959Z,73.13
2018-07-23T07:22:12.959Z,73.13
2018-07-23T07:23:12.938Z,73.13
2018-07-23T07:24:12.936Z,78.75
2018-07-23T07:25:12.968Z,78.75
2018-07-23T07:26:12.920Z,78.75
2018-07-23T07:27:12.928Z,73.13
2018-07-23T07:28:12.924Z,78.75
2018-07-23T07:29:12.912Z,78.75
2018-07-23T07:30:12.933Z,78.75
2018-07-23T07:31:12.893Z,78.75
2018-07-23T07:32:12.897Z,78.75
2018-07-23T07:33:12.882Z,78.75
2018-07-23T07:34:12.881Z,78.75
2018-07-23T07:35:12.908Z,73.13
2018-07-23T07:36:12.867Z,73.13
2018-07-23T07:37:12.928Z,73.13
2018-07-23T07:38:12.866Z,73.13
2018-07-23T07:39:12.855Z,73.13
2018-07-23T07:40:12.843Z,73.13
2018-07-23T07:41:12.834Z,73.13
2018-07-23T07:42:12.832Z,78.75
2018-07-23T07:43:12.905Z,78.75
2018-07-23T07:44:12.816Z,78.75
2018-07-23T07:45:12.804Z,78.75
2018-07-23T07:46:12.804Z,78.75
2018-07-23T07:47:12.796Z,78.75
2018-07-23T07:48:12.804Z,78.75
2018-07-23T07:49:12.804Z,84.38
2018-07-23T07:50:12.780Z,84.38
2018-07-23T07:51:12.796Z,78.75
2018-07-23T07:52:12.769Z,78.75
2018-07-23T07:53:12.767Z,84.38
2018-07-23T07:54:12.750Z,90.00
2018-07-23T07:55:12.752Z,84.38
2018-07-23T07:56:12.782Z,84.38
2018-07-23T07:57:12.748Z,84.38
2018-07-23T07:58:12.732Z,84.38
2018-07-23T07:59:12.804Z,90.00
2018-07-23T08:00:12.726Z,90.00
2018-07-23T08:01:12.716Z,90.00
2018-07-23T08:02:12.703Z,90.00
2018-07-23T08:03:12.717Z,90.00
2018-07-23T08:04:12.732Z,90.00
2018-07-23T08:05:12.701Z,90.00
2018-07-23T08:06:12.747Z,90.00
2018-07-23T08:07:12.692Z,90.00
2018-07-23T08:08:12.693Z,90.00
2018-07-23T08:09:12.675Z,90.00
2018-07-23T08:10:12.676Z,95.63
2018-07-23T08:11:12.662Z,95.63
2018-07-23T08:12:12.726Z,95.63
2018-07-23T08:13:12.645Z,95.63
2018-07-23T08:14:12.647Z,95.63
2018-07-23T08:15:12.647Z,95.63
2018-07-23T08:16:12.643Z,95.63
2018-07-23T08:17:12.697Z,95.63
2018-07-23T08:18:12.616Z,95.63
2018-07-23T08:19:12.607Z,95.63
2018-07-23T08:20:12.622Z,95.63
2018-07-23T08:21:12.605Z,95.63
2018-07-23T08:22:12.637Z,95.63
2018-07-23T08:23:12.684Z,101.25
2018-07-23T08:24:12.581Z,101.25
2018-07-23T08:25:13.389Z,101.25
2018-07-23T08:26:12.804Z,101.25
2018-07-23T08:27:12.594Z,101.25
2018-07-23T08:28:12.575Z,101.25
2018-07-23T08:29:12.572Z,106.88
2018-07-23T08:30:12.559Z,106.88
2018-07-23T08:31:12.560Z,106.88
2018-07-23T08:32:12.661Z,112.50
2018-07-23T08:33:12.543Z,106.88
2018-07-23T08:34:12.539Z,106.88
2018-07-23T08:35:12.534Z,112.50
2018-07-23T08:36:12.523Z,112.50
2018-07-23T08:37:12.578Z,112.50
2018-07-23T08:38:12.529Z,118.13
2018-07-23T08:39:12.516Z,129.38
2018-07-23T08:40:12.508Z,129.38
2018-07-23T08:41:12.506Z,123.75
2018-07-23T08:42:12.527Z,118.13
2018-07-23T08:43:12.506Z,135.00
2018-07-23T08:44:12.555Z,135.00
2018-07-23T08:45:12.484Z,112.50
2018-07-23T08:46:12.787Z,112.50
2018-07-23T08:47:12.462Z,123.75
2018-07-23T08:48:12.455Z,135.00
2018-07-23T08:49:12.457Z,157.50
2018-07-23T08:50:12.510Z,157.50
2018-07-23T08:51:12.494Z,191.25
2018-07-23T08:52:12.460Z,326.25
2018-07-23T08:53:12.436Z,388.13
2018-07-23T08:54:12.428Z,410.63
2018-07-23T08:55:12.423Z,466.88
2018-07-23T08:56:12.461Z,793.13
2018-07-23T08:57:12.481Z,1344.38
2018-07-23T08:58:12.420Z,1749.38
2018-07-23T08:59:12.415Z,1918.13
2018-07-23T09:00:12.409Z,1726.88
2018-07-23T09:01:12.434Z,1856.25
2018-07-23T09:02:12.402Z,2238.75
2018-07-23T09:03:12.423Z,2480.63
2018-07-23T09:04:12.410Z,2413.13
2018-07-23T09:05:12.411Z,2334.38
2018-07-23T09:06:12.421Z,2576.25
2018-07-23T09:07:12.404Z,2728.13
2018-07-23T09:08:12.461Z,2874.38
2018-07-23T09:09:12.403Z,3060.00
2018-07-23T09:10:12.403Z,2992.50
2018-07-23T09:11:12.412Z,2947.50
2018-07-23T09:12:12.601Z,3071.25
2018-07-23T09:13:12.427Z,3060.00
2018-07-23T09:14:12.493Z,3110.63
2018-07-23T09:15:12.413Z,3105.00
2018-07-23T09:16:12.445Z,3144.38
2018-07-23T09:17:12.474Z,3144.38
2018-07-23T09:18:12.415Z,3116.25
2018-07-23T09:19:12.477Z,3172.50
2018-07-23T09:20:12.433Z,3431.25
2018-07-23T09:21:12.435Z,3324.38
2018-07-23T09:22:12.486Z,3335.63
2018-07-23T09:23:12.438Z,3481.88
2018-07-23T09:24:12.484Z,3273.75
2018-07-23T09:25:12.464Z,3380.63
2018-07-23T09:26:12.973Z,3515.63
2018-07-23T09:27:12.454Z,3521.25
2018-07-23T09:28:12.455Z,3656.25
2018-07-23T09:29:12.451Z,3628.13
2018-07-23T09:30:12.495Z,3583.13
2018-07-23T09:31:12.472Z,3729.38
2018-07-23T09:32:12.602Z,3588.75
2018-07-23T09:33:12.483Z,3290.63
2018-07-23T09:34:12.501Z,3504.38
2018-07-23T09:35:12.506Z,3628.13
2018-07-23T09:36:12.500Z,3504.38
2018-07-23T09:37:12.577Z,3228.75
2018-07-23T09:38:12.530Z,3436.88
2018-07-23T09:39:12.517Z,3330.00
2018-07-23T09:40:12.517Z,3037.50
2018-07-23T09:41:12.535Z,3138.75
2018-07-23T09:42:12.530Z,3088.13
2018-07-23T09:43:12.548Z,2902.50
2018-07-23T09:44:12.538Z,3110.63
2018-07-23T09:45:12.554Z,3262.50
2018-07-23T09:46:12.564Z,3363.75
2018-07-23T09:47:12.575Z,3616.88
2018-07-23T09:48:12.636Z,3403.13
2018-07-23T09:49:12.585Z,3301.88
2018-07-23T09:50:12.589Z,3245.63
2018-07-23T09:51:12.602Z,2919.38
2018-07-23T09:52:12.601Z,3178.13
2018-07-23T09:53:12.616Z,3285.00
2018-07-23T09:54:12.664Z,3065.63
2018-07-23T09:55:12.633Z,3268.13
2018-07-23T09:56:12.635Z,326.25
2018-07-23T09:57:12.657Z,343.13
2018-07-23T09:58:12.666Z,3521.25
2018-07-23T09:59:12.737Z,2587.50
2018-07-23T10:00:12.674Z,298.13
2018-07-23T10:01:12.687Z,241.88
2018-07-23T10:02:12.684Z,163.13
2018-07-23T10:03:12.829Z,973.13
2018-07-23T10:04:12.704Z,3470.63
2018-07-23T10:05:12.718Z,3661.88
2018-07-23T10:06:12.704Z,3555.00
2018-07-23T10:07:12.733Z,3628.13
2018-07-23T10:08:12.723Z,3538.13
2018-07-23T10:09:12.762Z,3498.75
2018-07-23T10:10:12.731Z,3785.63
2018-07-23T10:11:12.752Z,3819.38
2018-07-23T10:12:12.891Z,3763.13
2018-07-23T10:13:12.756Z,3780.00
2018-07-23T10:14:12.791Z,3971.25
2018-07-23T10:15:12.766Z,4145.63
2018-07-23T10:16:12.781Z,2216.25
2018-07-23T10:17:12.781Z,1147.50
2018-07-23T10:18:12.793Z,523.13
2018-07-23T10:19:12.814Z,2885.63
2018-07-23T10:20:12.801Z,534.38
2018-07-23T10:21:12.929Z,264.38
2018-07-23T10:22:12.867Z,326.25
2018-07-23T10:23:12.818Z,1951.88
2018-07-23T10:24:12.817Z,3543.75
2018-07-23T10:25:12.827Z,3425.63
2018-07-23T10:26:12.864Z,3948.75
2018-07-23T10:27:12.864Z,3841.88
2018-07-23T10:28:12.844Z,3841.88
2018-07-23T10:29:12.848Z,3903.75
2018-07-23T10:30:12.843Z,388.13
2018-07-23T10:31:12.885Z,275.63
2018-07-23T10:32:12.914Z,461.25
2018-07-23T10:33:12.867Z,4393.13
2018-07-23T10:34:12.869Z,3898.13
2018-07-23T10:35:12.883Z,4016.25
2018-07-23T10:36:12.885Z,4218.75
2018-07-23T10:37:12.889Z,3988.13
2018-07-23T10:38:12.897Z,4280.63
2018-07-23T10:39:12.897Z,4213.13
2018-07-23T10:40:12.899Z,3982.50
2018-07-23T10:41:12.920Z,4162.50
2018-07-23T10:42:12.970Z,3346.88
2018-07-23T10:43:12.907Z,2536.88
2018-07-23T10:44:12.921Z,3262.50
2018-07-23T10:45:12.931Z,3965.63
2018-07-23T10:46:12.939Z,3847.50
2018-07-23T10:47:12.929Z,3386.25
2018-07-23T10:48:12.965Z,3600.00
2018-07-23T10:49:12.951Z,3487.50
2018-07-23T10:50:12.955Z,1923.75
2018-07-23T10:51:12.964Z,1113.75
2018-07-23T10:52:12.971Z,2452.50
2018-07-23T10:53:13.006Z,3172.50
2018-07-23T10:54:12.981Z,3605.63
2018-07-23T10:55:13.025Z,3566.25
2018-07-23T10:56:13.028Z,3656.25
2018-07-23T10:57:12.995Z,3898.13
2018-07-23T10:58:12.998Z,3538.13
2018-07-23T10:59:13.009Z,4269.38
2018-07-23T11:00:13.029Z,3639.38
2018-07-23T11:01:13.181Z,4044.38
2018-07-23T11:02:13.038Z,3600.00
2018-07-23T11:03:13.025Z,3324.38
2018-07-23T11:04:13.051Z,2930.63
2018-07-23T11:05:13.053Z,1102.50
2018-07-23T11:06:13.055Z,506.25
2018-07-23T11:07:13.149Z,804.38
2018-07-23T11:08:13.053Z,781.88
2018-07-23T11:09:13.070Z,2503.13
2018-07-23T11:10:13.077Z,1451.25
2018-07-23T11:11:13.072Z,652.50
2018-07-23T11:12:13.124Z,1243.13
2018-07-23T11:13:13.085Z,500.63
2018-07-23T11:14:13.086Z,348.75
2018-07-23T11:15:13.097Z,478.13
2018-07-23T11:16:13.095Z,1563.75
2018-07-23T11:17:13.206Z,4173.75
2018-07-23T11:18:13.107Z,4095.00
2018-07-23T11:19:13.141Z,4432.50
2018-07-23T11:20:13.100Z,4353.75
2018-07-23T11:21:13.117Z,4303.13
2018-07-23T11:22:13.114Z,4252.50
2018-07-23T11:23:13.126Z,4286.25
2018-07-23T11:24:13.129Z,3768.75
2018-07-23T11:25:38.693Z,3853.13
2018-07-23T11:26:13.146Z,4089.38
2018-07-23T11:27:13.141Z,3414.38
2018-07-23T11:28:13.139Z,4168.13
2018-07-23T11:29:13.147Z,4308.75
2018-07-23T11:30:13.146Z,4303.13
2018-07-23T11:31:13.162Z,4230.00
2018-07-23T11:32:13.171Z,4466.25
2018-07-23T11:33:13.206Z,4483.13
2018-07-23T11:34:13.176Z,4398.75
2018-07-23T11:35:13.174Z,4173.75
2018-07-23T11:36:13.190Z,3780.00
2018-07-23T11:37:13.183Z,3965.63
2018-07-23T11:38:13.240Z,4286.25
2018-07-23T11:39:13.210Z,4151.25
2018-07-23T11:40:13.207Z,3943.13
2018-07-23T11:41:13.214Z,4308.75
2018-07-23T11:42:13.218Z,4320.00
2018-07-23T11:43:13.258Z,4173.75
2018-07-23T11:44:13.233Z,4066.88
2018-07-23T11:45:13.250Z,4224.38
2018-07-23T11:46:24.448Z,4218.75
2018-07-23T11:47:13.316Z,4106.25
2018-07-23T11:48:13.297Z,4151.25
2018-07-23T11:49:13.280Z,4235.63
2018-07-23T11:50:13.286Z,4140.00
2018-07-23T11:51:13.294Z,4291.88
2018-07-23T11:52:14.358Z,4168.13
2018-07-23T11:53:13.343Z,4106.25
2018-07-23T11:54:13.319Z,4173.75
2018-07-23T11:55:13.329Z,4156.88
2018-07-23T11:56:13.340Z,4044.38
2018-07-23T11:57:13.344Z,2891.25
2018-07-23T11:58:13.382Z,1096.88
2018-07-23T11:59:13.360Z,433.13
2018-07-23T12:00:13.395Z,731.25
2018-07-23T12:01:13.387Z,2385.00
2018-07-23T12:02:13.387Z,3493.13
2018-07-23T12:03:13.413Z,292.50
2018-07-23T12:04:13.428Z,1816.88
2018-07-23T12:05:13.461Z,2193.75
2018-07-23T12:06:13.435Z,613.13
2018-07-23T12:07:13.446Z,298.13
2018-07-23T12:08:13.445Z,208.13
2018-07-23T12:09:13.465Z,202.50
2018-07-23T12:10:13.500Z,213.75
2018-07-23T12:11:13.511Z,185.63
2018-07-23T12:12:13.481Z,213.75
2018-07-23T12:13:13.498Z,208.13
2018-07-23T12:14:13.522Z,180.00
2018-07-23T12:15:13.516Z,180.00
2018-07-23T12:16:13.514Z,191.25
2018-07-23T12:17:13.532Z,208.13
2018-07-23T12:18:13.592Z,264.38
2018-07-23T12:19:13.526Z,264.38
2018-07-23T12:20:13.533Z,219.38
2018-07-23T12:21:13.552Z,247.50
2018-07-23T12:22:13.537Z,225.00
2018-07-23T12:23:13.545Z,208.13
2018-07-23T12:24:13.589Z,213.75
2018-07-23T12:25:13.547Z,219.38
2018-07-23T12:26:13.558Z,247.50
2018-07-23T12:27:13.566Z,225.00
2018-07-23T12:28:13.595Z,208.13
2018-07-23T12:29:13.565Z,196.88
2018-07-23T12:30:13.571Z,208.13
2018-07-23T12:31:13.571Z,213.75
2018-07-23T12:32:13.572Z,196.88
2018-07-23T12:33:13.607Z,450.00
2018-07-23T12:34:13.571Z,281.25
2018-07-23T12:35:13.580Z,157.50
2018-07-23T12:36:13.576Z,236.25
2018-07-23T12:37:13.619Z,168.75
2018-07-23T12:38:13.583Z,196.88
2018-07-23T12:39:13.589Z,213.75
2018-07-23T12:40:13.585Z,191.25
2018-07-23T12:41:13.579Z,213.75
2018-07-23T12:42:13.664Z,219.38
2018-07-23T12:43:13.586Z,168.75
2018-07-23T12:44:13.594Z,168.75
2018-07-23T12:45:13.581Z,168.75
2018-07-23T12:46:13.584Z,163.13
2018-07-23T12:47:13.664Z,174.38